createdAt,value
2022-08-25T00:02:06.791Z,22.70
2022-08-25T00:04:35.952Z,22.70
2022-08-25T00:07:05.622Z,22.70
2022-08-25T00:09:34.824Z,22.70
2022-08-25T00:12:04.149Z,22.70
2022-08-25T00:14:35.933Z,22.70
2022-08-25T00:17:05.466Z,22.70
2022-08-25T00:19:36.086Z,22.70
2022-08-25T00:22:07.233Z,22.70
2022-08-25T00:24:35.443Z,22.70
2022-08-25T00:27:03.746Z,22.60
2022-08-25T00:29:32.043Z,22.60
2022-08-25T00:32:00.613Z,22.60
2022-08-25T00:34:34.843Z,22.60
2022-08-25T00:37:04.512Z,22.50
2022-08-25T00:39:31.887Z,22.50
2022-08-25T00:42:00.362Z,22.50
2022-08-25T00:44:31.263Z,22.50
2022-08-25T00:47:01.056Z,22.50
2022-08-25T00:49:40.816Z,22.50
2022-08-25T00:52:16.941Z,22.50
2022-08-25T00:54:52.881Z,22.50
2022-08-25T00:57:34.533Z,22.40
2022-08-25T01:00:13.878Z,22.40
2022-08-25T01:02:42.081Z,22.40
2022-08-25T01:05:10.020Z,22.40
2022-08-25T01:07:38.178Z,22.40
2022-08-25T01:10:07.988Z,22.40
2022-08-25T01:12:37.408Z,22.40
2022-08-25T01:15:07.863Z,22.30
2022-08-25T01:17:57.822Z,22.30
2022-08-25T01:20:30.993Z,22.30
2022-08-25T01:22:59.537Z,22.30
2022-08-25T01:25:50.267Z,22.30
2022-08-25T01:28:19.046Z,22.30
2022-08-25T01:30:46.922Z,22.20
2022-08-25T01:33:14.229Z,22.20
2022-08-25T01:35:41.845Z,22.20
2022-08-25T01:38:09.382Z,22.20
2022-08-25T01:40:39.906Z,22.20
2022-08-25T01:43:08.153Z,22.20
2022-08-25T01:45:37.794Z,22.20
2022-08-25T01:48:06.953Z,22.10
2022-08-25T01:50:35.211Z,22.10
2022-08-25T01:53:27.769Z,22.10
2022-08-25T01:56:06.220Z,22.10
2022-08-25T01:58:41.039Z,22.00
2022-08-25T02:01:16.050Z,22.00
2022-08-25T02:03:48.951Z,22.00
2022-08-25T02:09:16.043Z,22.00
2022-08-25T02:11:47.936Z,22.00
2022-08-25T02:14:18.414Z,22.00
2022-08-25T02:16:51.238Z,22.00
2022-08-25T02:19:20.237Z,22.00
2022-08-25T02:21:47.896Z,22.00
2022-08-25T02:24:15.452Z,22.00
2022-08-25T02:26:43.675Z,22.00
2022-08-25T02:29:11.762Z,22.00
2022-08-25T02:31:39.585Z,22.00
2022-08-25T02:34:09.189Z,21.90
2022-08-25T02:36:38.514Z,21.90
2022-08-25T02:39:10.031Z,21.90
2022-08-25T02:41:38.939Z,21.90
2022-08-25T02:44:07.662Z,21.90
2022-08-25T02:46:36.367Z,21.90
2022-08-25T02:49:05.003Z,21.90
2022-08-25T02:51:33.744Z,21.80
2022-08-25T02:54:02.514Z,21.80
2022-08-25T02:56:31.709Z,21.80
2022-08-25T02:59:00.330Z,21.80
2022-08-25T03:01:29.250Z,21.80
2022-08-25T03:03:56.913Z,21.80
2022-08-25T03:06:25.042Z,21.80
2022-08-25T03:08:53.262Z,21.80
2022-08-25T03:11:21.096Z,21.80
2022-08-25T03:13:56.651Z,21.80
2022-08-25T03:16:27.704Z,21.70
2022-08-25T03:18:56.825Z,21.70
2022-08-25T03:21:25.376Z,21.70
2022-08-25T03:23:55.046Z,21.70
2022-08-25T03:26:42.310Z,21.70
2022-08-25T03:29:10.868Z,21.60
2022-08-25T03:31:40.110Z,21.60
2022-08-25T03:34:09.516Z,21.60
2022-08-25T03:39:25.625Z,21.60
2022-08-25T03:41:53.951Z,21.60
2022-08-25T03:44:22.126Z,21.60
2022-08-25T03:46:52.238Z,21.50
2022-08-25T03:49:23.619Z,21.50
2022-08-25T03:51:54.277Z,21.50
2022-08-25T03:54:25.253Z,21.50
2022-08-25T03:56:53.221Z,21.50
2022-08-25T03:59:21.231Z,21.50
2022-08-25T04:01:54.437Z,21.50
2022-08-25T04:04:22.988Z,21.50
2022-08-25T04:06:50.275Z,21.50
2022-08-25T04:09:17.830Z,21.50
2022-08-25T04:11:45.673Z,21.50
2022-08-25T04:14:15.857Z,21.50
2022-08-25T04:16:46.356Z,21.50
2022-08-25T04:19:14.498Z,21.50
2022-08-25T04:21:42.326Z,21.50
2022-08-25T04:24:12.371Z,21.50
2022-08-25T04:26:47.178Z,21.50
2022-08-25T04:29:17.479Z,21.50
2022-08-25T04:31:52.906Z,21.50
2022-08-25T04:34:30.088Z,21.50
2022-08-25T04:37:06.769Z,21.40
2022-08-25T04:39:34.694Z,21.40
2022-08-25T04:42:06.103Z,21.40
2022-08-25T04:44:33.336Z,21.30
2022-08-25T04:49:46.435Z,21.30
2022-08-25T04:52:14.509Z,21.30
2022-08-25T04:54:43.190Z,21.30
2022-08-25T04:57:10.585Z,21.30
2022-08-25T04:59:41.909Z,21.30
2022-08-25T05:02:11.095Z,21.30
2022-08-25T05:04:39.214Z,21.30
2022-08-25T05:07:06.571Z,21.30
2022-08-25T05:09:34.457Z,21.30
2022-08-25T05:12:04.306Z,21.40
2022-08-25T05:14:32.820Z,21.40
2022-08-25T05:17:00.464Z,21.40
2022-08-25T05:19:32.399Z,21.40
2022-08-25T05:21:59.572Z,21.50
2022-08-25T05:24:28.618Z,21.50
2022-08-25T05:26:56.596Z,21.50
2022-08-25T05:29:24.501Z,21.50
2022-08-25T05:31:51.651Z,21.60
2022-08-25T05:34:20.473Z,21.60
2022-08-25T05:36:48.777Z,21.60
2022-08-25T05:39:16.854Z,21.70
2022-08-25T05:41:44.385Z,21.70
2022-08-25T05:44:12.993Z,21.80
2022-08-25T05:46:40.783Z,21.90
2022-08-25T05:49:07.940Z,21.90
2022-08-25T05:51:35.115Z,22.00
2022-08-25T05:54:03.939Z,22.00
2022-08-25T05:56:33.220Z,22.10
2022-08-25T05:59:09.278Z,22.20
2022-08-25T06:02:10.086Z,22.20
2022-08-25T06:04:41.087Z,22.30
2022-08-25T06:07:09.008Z,22.40
2022-08-25T06:09:40.015Z,22.40
2022-08-25T06:12:08.649Z,22.50
2022-08-25T06:14:37.294Z,22.60
2022-08-25T06:17:05.167Z,22.60
2022-08-25T06:19:33.170Z,22.70
2022-08-25T06:22:07.415Z,22.80
2022-08-25T06:24:35.171Z,22.90
2022-08-25T06:27:03.093Z,23.00
2022-08-25T06:32:15.916Z,23.10
2022-08-25T06:34:43.183Z,23.20
2022-08-25T06:37:11.024Z,23.20
2022-08-25T06:39:38.511Z,23.30
2022-08-25T06:42:06.360Z,23.40
2022-08-25T06:44:35.739Z,23.50
2022-08-25T06:47:03.519Z,23.60
2022-08-25T06:49:35.980Z,23.70
2022-08-25T06:52:04.153Z,23.80
2022-08-25T06:54:31.653Z,23.90
2022-08-25T06:56:59.168Z,24.00
2022-08-25T06:59:32.498Z,24.10
2022-08-25T07:02:03.255Z,24.20
2022-08-25T07:04:32.605Z,24.30
2022-08-25T07:07:02.955Z,24.50
2022-08-25T07:09:30.603Z,24.60
2022-08-25T07:11:58.500Z,24.70
2022-08-25T07:14:26.344Z,24.80
2022-08-25T07:16:53.542Z,25.00
2022-08-25T07:19:21.250Z,25.10
2022-08-25T07:21:52.945Z,25.20
2022-08-25T07:24:21.070Z,25.40
2022-08-25T07:26:49.109Z,25.50
2022-08-25T07:29:32.876Z,25.60
2022-08-25T07:32:02.947Z,25.70
2022-08-25T07:34:51.934Z,25.80
2022-08-25T07:40:35.898Z,26.00
2022-08-25T07:43:08.486Z,26.00
2022-08-25T07:45:42.089Z,26.10
2022-08-25T07:48:20.084Z,26.10
2022-08-25T07:50:48.957Z,26.10
2022-08-25T07:53:17.839Z,26.10
2022-08-25T07:55:45.601Z,26.10
2022-08-25T07:58:15.385Z,26.10
2022-08-25T08:00:43.311Z,26.20
2022-08-25T08:05:56.717Z,26.20
2022-08-25T08:08:24.852Z,26.20
2022-08-25T08:11:04.577Z,26.20
2022-08-25T08:13:38.042Z,26.30
2022-08-25T08:16:14.974Z,26.30
2022-08-25T08:18:44.937Z,26.30
2022-08-25T08:21:22.620Z,26.30
2022-08-25T08:23:56.663Z,26.30
2022-08-25T08:26:48.180Z,26.40
2022-08-25T08:29:16.774Z,26.40
2022-08-25T08:31:48.694Z,26.40
2022-08-25T08:34:17.382Z,26.40
2022-08-25T08:36:45.342Z,26.50
2022-08-25T08:39:19.873Z,26.50
2022-08-25T08:42:22.496Z,26.50
2022-08-25T08:45:09.511Z,26.50
2022-08-25T08:48:02.008Z,26.50
2022-08-25T08:50:47.886Z,26.60
2022-08-25T08:53:28.458Z,26.60
2022-08-25T08:56:11.855Z,26.70
2022-08-25T08:58:56.785Z,26.70
2022-08-25T09:02:00.547Z,26.80
2022-08-25T09:04:58.952Z,26.80
2022-08-25T09:07:44.228Z,26.80
2022-08-25T09:10:18.280Z,26.90
2022-08-25T09:13:15.644Z,26.90
2022-08-25T09:16:22.431Z,27.00
2022-08-25T09:19:26.452Z,26.90
2022-08-25T09:22:34.024Z,27.00
2022-08-25T09:25:52.242Z,27.00
2022-08-25T09:28:32.227Z,27.10
2022-08-25T09:31:34.168Z,27.20
2022-08-25T09:34:17.207Z,27.30
2022-08-25T09:36:48.476Z,27.30
2022-08-25T09:39:16.398Z,27.30
2022-08-25T09:41:56.789Z,27.40
2022-08-25T09:44:44.081Z,27.50
2022-08-25T09:47:28.544Z,27.50
2022-08-25T09:50:05.206Z,27.50
2022-08-25T09:52:41.404Z,27.60
2022-08-25T09:55:09.277Z,27.60
2022-08-25T09:57:43.102Z,27.70
2022-08-25T10:00:22.457Z,27.70
2022-08-25T10:03:15.443Z,27.70
2022-08-25T10:06:12.913Z,27.80
2022-08-25T10:08:43.979Z,27.80
2022-08-25T10:11:31.406Z,27.80
2022-08-25T10:14:33.565Z,27.90
2022-08-25T10:17:29.577Z,27.90
2022-08-25T10:20:20.054Z,28.00
2022-08-25T10:22:50.869Z,28.00
2022-08-25T10:25:27.844Z,28.00
2022-08-25T10:28:53.039Z,28.00
2022-08-25T10:31:44.102Z,28.10
2022-08-25T10:34:23.925Z,28.10
2022-08-25T10:37:32.817Z,28.20
2022-08-25T10:40:33.025Z,28.20
2022-08-25T10:43:19.297Z,28.30
2022-08-25T10:46:21.222Z,28.30
2022-08-25T10:49:07.143Z,28.30
2022-08-25T10:51:57.154Z,28.30
2022-08-25T10:54:47.865Z,28.40
2022-08-25T10:57:55.191Z,28.40
2022-08-25T11:00:31.698Z,28.50
2022-08-25T11:03:42.673Z,28.60
2022-08-25T11:06:23.973Z,28.60
2022-08-25T11:08:59.093Z,28.60
2022-08-25T11:11:40.922Z,28.60
2022-08-25T11:14:19.377Z,28.70
2022-08-25T11:17:18.849Z,28.70
2022-08-25T11:19:52.308Z,28.80
2022-08-25T11:22:44.073Z,28.80
2022-08-25T11:25:38.265Z,28.90
2022-08-25T11:28:32.809Z,28.90
2022-08-25T11:31:05.399Z,28.90
2022-08-25T11:33:51.786Z,28.90
2022-08-25T11:36:35.861Z,28.90
2022-08-25T11:39:34.832Z,29.00
2022-08-25T11:42:34.686Z,29.00
2022-08-25T11:45:30.443Z,29.00
2022-08-25T11:48:02.490Z,29.10
2022-08-25T11:51:17.436Z,29.10
2022-08-25T11:53:46.405Z,29.10
2022-08-25T11:56:36.924Z,29.10
2022-08-25T11:59:08.486Z,29.10
2022-08-25T12:01:44.460Z,29.10
2022-08-25T12:04:44.964Z,29.20
2022-08-25T12:07:22.880Z,29.20
2022-08-25T12:09:51.318Z,29.30
2022-08-25T12:12:57.201Z,29.30
2022-08-25T12:15:35.161Z,29.30
2022-08-25T12:18:31.501Z,29.30
2022-08-25T12:21:02.497Z,29.30
2022-08-25T12:23:44.593Z,29.20
2022-08-25T12:26:55.276Z,29.20
2022-08-25T12:30:01.407Z,29.20
2022-08-25T12:32:53.643Z,29.20
2022-08-25T12:35:32.690Z,29.30
2022-08-25T12:38:05.494Z,29.30
2022-08-25T12:40:46.037Z,29.30
2022-08-25T12:44:00.664Z,29.40
2022-08-25T12:46:31.988Z,29.50
2022-08-25T12:49:15.663Z,29.60
2022-08-25T12:51:48.697Z,29.70
2022-08-25T12:54:48.033Z,29.80
2022-08-25T12:57:29.411Z,29.90
2022-08-25T13:00:00.199Z,30.00
2022-08-25T13:03:10.931Z,30.20
2022-08-25T13:05:47.146Z,30.30
2022-08-25T13:08:46.591Z,30.30
2022-08-25T13:11:24.806Z,30.50
2022-08-25T13:14:11.531Z,30.50
2022-08-25T13:16:39.411Z,30.60
2022-08-25T13:19:07.412Z,30.70
2022-08-25T13:21:39.262Z,30.80
2022-08-25T13:24:17.996Z,30.90
2022-08-25T13:26:49.374Z,31.00
2022-08-25T13:29:23.860Z,31.10
2022-08-25T13:32:09.457Z,31.20
2022-08-25T13:34:42.742Z,31.30
2022-08-25T13:37:30.229Z,31.40
2022-08-25T13:40:26.406Z,31.50
2022-08-25T13:43:29.442Z,31.50
2022-08-25T13:45:57.229Z,31.60
2022-08-25T13:48:38.464Z,31.70
2022-08-25T13:51:25.490Z,31.70
2022-08-25T13:54:09.602Z,31.70
2022-08-25T13:56:42.342Z,31.70
2022-08-25T13:59:31.200Z,31.70
2022-08-25T14:02:00.072Z,31.70
2022-08-25T14:04:33.177Z,31.60
2022-08-25T14:07:21.289Z,31.60
2022-08-25T14:10:06.033Z,31.50
2022-08-25T14:12:46.708Z,31.40
2022-08-25T14:15:35.763Z,31.20
2022-08-25T14:18:15.596Z,31.10
2022-08-25T14:20:54.091Z,30.90
2022-08-25T14:23:27.691Z,30.80
2022-08-25T14:25:58.242Z,30.70
2022-08-25T14:28:30.357Z,30.70
2022-08-25T14:31:05.523Z,30.70
2022-08-25T14:34:00.217Z,30.60
2022-08-25T14:36:30.710Z,30.50
2022-08-25T14:38:58.391Z,30.50
2022-08-25T14:41:27.325Z,30.40
2022-08-25T14:43:54.502Z,30.30
2022-08-25T14:46:26.399Z,30.30
2022-08-25T14:49:05.519Z,30.30
2022-08-25T14:51:34.338Z,30.20
2022-08-25T14:54:08.212Z,30.20
2022-08-25T14:56:37.315Z,30.20
2022-08-25T14:59:08.383Z,30.10
2022-08-25T15:01:36.060Z,30.20
2022-08-25T15:04:16.039Z,30.10
2022-08-25T15:06:45.910Z,30.20
2022-08-25T15:09:17.052Z,30.20
2022-08-25T15:11:57.152Z,30.20
2022-08-25T15:14:28.508Z,30.20
2022-08-25T15:17:00.708Z,30.20
2022-08-25T15:19:29.622Z,30.20
2022-08-25T15:21:58.034Z,30.20
2022-08-25T15:24:28.488Z,30.20
2022-08-25T15:27:01.322Z,30.10
2022-08-25T15:29:32.090Z,30.10
2022-08-25T15:32:18.981Z,30.10
2022-08-25T15:34:46.278Z,30.10
2022-08-25T15:37:17.478Z,30.10
2022-08-25T15:39:47.052Z,30.10
2022-08-25T15:42:16.424Z,30.10
2022-08-25T15:44:53.397Z,30.00
2022-08-25T15:47:40.662Z,29.90
2022-08-25T15:50:27.273Z,29.90
2022-08-25T15:52:54.970Z,29.90
2022-08-25T15:55:26.553Z,29.90
2022-08-25T15:57:54.883Z,29.90
2022-08-25T16:00:23.165Z,29.90
2022-08-25T16:02:52.936Z,29.90
2022-08-25T16:05:25.667Z,29.90
2022-08-25T16:07:53.643Z,29.90
2022-08-25T16:10:22.626Z,29.80
2022-08-25T16:12:53.422Z,29.80
2022-08-25T16:15:23.781Z,29.80
2022-08-25T16:17:51.761Z,29.80
2022-08-25T16:20:37.698Z,29.80
2022-08-25T16:23:05.266Z,29.70
2022-08-25T16:25:33.646Z,29.70
2022-08-25T16:28:05.732Z,29.70
2022-08-25T16:30:33.235Z,29.70
2022-08-25T16:33:02.651Z,29.70
2022-08-25T16:35:30.518Z,29.60
2022-08-25T16:37:57.716Z,29.60
2022-08-25T16:40:26.666Z,29.60
2022-08-25T16:42:55.019Z,29.60
2022-08-25T16:45:22.977Z,29.50
2022-08-25T16:47:51.658Z,29.50
2022-08-25T16:56:09.695Z,29.40
2022-08-25T16:58:39.841Z,29.40
2022-08-25T17:01:15.373Z,29.40
2022-08-25T17:03:44.245Z,29.40
2022-08-25T17:06:15.159Z,29.40
2022-08-25T17:08:44.394Z,29.30
2022-08-25T17:11:26.953Z,29.30
2022-08-25T17:14:01.402Z,29.30
2022-08-25T17:16:35.633Z,29.30
2022-08-25T17:19:06.861Z,29.20
2022-08-25T17:21:40.621Z,29.20
2022-08-25T17:24:17.092Z,29.10
2022-08-25T17:26:50.302Z,29.10
2022-08-25T17:29:21.896Z,29.10
2022-08-25T17:31:49.604Z,29.00
2022-08-25T17:34:23.139Z,28.90
2022-08-25T17:36:58.942Z,28.90
2022-08-25T17:39:27.359Z,28.80
2022-08-25T17:41:55.942Z,28.70
2022-08-25T17:44:23.709Z,28.60
2022-08-25T17:46:51.969Z,28.50
2022-08-25T17:49:19.848Z,28.40
2022-08-25T17:51:47.339Z,28.40
2022-08-25T17:54:15.874Z,28.30
2022-08-25T17:56:43.753Z,28.20
2022-08-25T17:59:12.274Z,28.10
2022-08-25T18:01:40.321Z,28.00
2022-08-25T18:04:17.322Z,27.90
2022-08-25T18:06:48.985Z,27.90
2022-08-25T18:09:17.925Z,27.80
2022-08-25T18:11:46.140Z,27.70
2022-08-25T18:14:16.655Z,27.60
2022-08-25T18:16:45.030Z,27.60
2022-08-25T18:19:14.314Z,27.50
2022-08-25T18:21:43.475Z,27.40
2022-08-25T18:24:14.100Z,27.30
2022-08-25T18:26:41.768Z,27.20
2022-08-25T18:29:13.393Z,27.20
2022-08-25T18:31:42.430Z,27.10
2022-08-25T18:34:11.830Z,27.10
2022-08-25T18:36:41.395Z,27.00
2022-08-25T18:39:31.493Z,26.90
2022-08-25T18:42:06.446Z,26.80
2022-08-25T18:44:36.618Z,26.80
2022-08-25T18:47:07.475Z,26.70
2022-08-25T18:49:37.755Z,26.70
2022-08-25T18:52:08.227Z,26.60
2022-08-25T18:54:36.085Z,26.60
2022-08-25T18:57:04.217Z,26.50
2022-08-25T18:59:37.975Z,26.40
2022-08-25T19:02:11.884Z,26.40
2022-08-25T19:04:41.272Z,26.30
2022-08-25T19:07:13.867Z,26.30
2022-08-25T19:09:42.000Z,26.20
2022-08-25T19:12:22.124Z,26.20
2022-08-25T19:14:50.227Z,26.10
2022-08-25T19:17:18.633Z,26.10
2022-08-25T19:19:46.294Z,26.00
2022-08-25T19:22:38.054Z,26.00
2022-08-25T19:25:05.529Z,26.00
2022-08-25T19:27:36.225Z,25.90
2022-08-25T19:30:09.076Z,25.90
2022-08-25T19:32:45.482Z,25.80
2022-08-25T19:35:33.192Z,25.80
2022-08-25T19:38:07.000Z,25.70
2022-08-25T19:40:48.217Z,25.60
2022-08-25T19:43:17.885Z,25.60
2022-08-25T19:45:46.839Z,25.50
2022-08-25T19:48:14.947Z,25.50
2022-08-25T19:50:43.583Z,25.40
2022-08-25T19:53:14.074Z,25.40
2022-08-25T19:55:43.461Z,25.30
2022-08-25T19:58:11.866Z,25.30
2022-08-25T20:00:40.612Z,25.20
2022-08-25T20:03:08.714Z,25.20
2022-08-25T20:05:39.555Z,25.20
2022-08-25T20:08:07.689Z,25.20
2022-08-25T20:10:41.937Z,25.20
2022-08-25T20:13:10.540Z,25.10
2022-08-25T20:15:39.454Z,25.10
2022-08-25T20:18:07.281Z,25.10
2022-08-25T20:20:36.056Z,25.10
2022-08-25T20:23:22.803Z,25.10
2022-08-25T20:25:50.619Z,25.00
2022-08-25T20:28:18.971Z,25.00
2022-08-25T20:30:47.046Z,25.00
2022-08-25T20:33:14.313Z,25.00
2022-08-25T20:35:53.560Z,24.90
2022-08-25T20:38:26.912Z,24.90
2022-08-25T20:41:01.868Z,24.90
2022-08-25T20:43:31.737Z,24.90
2022-08-25T20:46:08.880Z,24.90
2022-08-25T20:48:38.927Z,24.80
2022-08-25T20:51:09.164Z,24.80
2022-08-25T20:53:41.732Z,24.70
2022-08-25T20:56:12.974Z,24.70
2022-08-25T20:58:42.738Z,24.60
2022-08-25T21:01:42.379Z,24.60
2022-08-25T21:04:14.991Z,24.60
2022-08-25T21:06:47.677Z,24.60
2022-08-25T21:09:20.681Z,24.50
2022-08-25T21:11:49.833Z,24.50
2022-08-25T21:14:17.594Z,24.50
2022-08-25T21:16:47.968Z,24.50
2022-08-25T21:19:26.281Z,24.40
2022-08-25T21:21:59.560Z,24.40
2022-08-25T21:24:31.853Z,24.30
2022-08-25T21:27:00.330Z,24.30
2022-08-25T21:29:32.618Z,24.30
2022-08-25T21:32:00.646Z,24.30
2022-08-25T21:34:29.446Z,24.30
2022-08-25T21:37:00.254Z,24.30
2022-08-25T21:39:30.185Z,24.30
2022-08-25T21:42:01.368Z,24.30
2022-08-25T21:44:30.077Z,24.30
2022-08-25T21:46:58.491Z,24.20
2022-08-25T21:49:26.115Z,24.20
2022-08-25T21:52:00.418Z,24.20
2022-08-25T21:54:29.457Z,24.20
2022-08-25T21:57:06.622Z,24.20
2022-08-25T21:59:37.388Z,24.20
2022-08-25T22:02:09.425Z,24.20
2022-08-25T22:04:40.711Z,24.20
2022-08-25T22:07:11.761Z,24.20
2022-08-25T22:09:40.311Z,24.20
2022-08-25T22:12:08.465Z,24.10
2022-08-25T22:14:37.183Z,24.10
2022-08-25T22:17:05.834Z,24.10
2022-08-25T22:19:36.515Z,24.10
2022-08-25T22:22:04.328Z,24.00
2022-08-25T22:24:31.563Z,24.00
2022-08-25T22:27:01.182Z,24.00
2022-08-25T22:29:28.924Z,23.90
2022-08-25T22:32:02.439Z,23.90
2022-08-25T22:34:34.714Z,23.90
2022-08-25T22:37:07.762Z,23.90
2022-08-25T22:39:40.332Z,23.90
2022-08-25T22:42:08.042Z,23.90
2022-08-25T22:44:40.003Z,23.90
2022-08-25T22:47:09.461Z,23.90
2022-08-25T22:49:40.260Z,23.90
2022-08-25T22:52:12.896Z,23.90
2022-08-25T22:54:42.284Z,23.80
2022-08-25T22:57:14.158Z,23.80
2022-08-25T22:59:41.732Z,23.80
2022-08-25T23:02:09.815Z,23.80
2022-08-25T23:04:41.257Z,23.80
2022-08-25T23:07:11.859Z,23.80
2022-08-25T23:09:40.568Z,23.80
2022-08-25T23:12:08.775Z,23.80
2022-08-25T23:14:42.062Z,23.90
2022-08-25T23:17:13.885Z,23.90
2022-08-25T23:22:27.785Z,23.90
2022-08-25T23:24:57.648Z,23.90
2022-08-25T23:27:25.807Z,23.90
2022-08-25T23:29:54.451Z,23.90
2022-08-25T23:32:22.885Z,24.00
2022-08-25T23:34:55.866Z,23.90
2022-08-25T23:37:23.307Z,23.90
2022-08-25T23:39:50.442Z,24.00
2022-08-25T23:42:19.589Z,24.00
2022-08-25T23:44:49.717Z,24.00
2022-08-25T23:47:19.026Z,24.00
2022-08-25T23:49:48.242Z,24.00
2022-08-25T23:52:17.845Z,24.00
2022-08-25T23:54:46.498Z,23.90
2022-08-25T23:57:15.157Z,23.90
2022-08-25T23:59:43.338Z,23.90
